Corky — WDC3366 — position and weather

sailwx.info

Track history (hours):
 
Tides and Currents Weather Stations Pressure Air Temp Water Temp Dewpoint Dewpoint Depression Visibility Wind Speed Wind Dir Waves Ship Positions

Corky

Owner: Gulf South Marine Transportation, Inc., New Orleans, LA. More information available from US FCC via Universal Licensing System and Coast Guard Vessel Documentation Center.

Last reported at 2018-Mar-24 05:48 UTC. Time now 2018-Apr-24 08:55 UTC.
Position N 29°33' W 090°24'.
Warning: this ship's position is 31 days out of date.

Length 18 m; draft 3.3 m.

Type: Tow > 200 m length. MMSI: 367006780.

Date/timePositionNaut miles runAvg speedWind from/ knotsBaromVisibWave heightAir tempDewpointWater temp
2018-Mar-24 05:48N 29°33' W 090°24'1 2.8
2018-Mar-24 05:27N 29°33' W 090°25'1 2.8
2018-Mar-24 04:58N 29°33' W 090°26'2 2.6
2018-Mar-24 04:19N 29°33' W 090°28'1 4.2
2018-Mar-24 04:00N 29°34' W 090°30'2 4.2
2018-Mar-24 03:30N 29°34' W 090°32'2 3.8
2018-Mar-24 03:00N 29°34' W 090°34'2 3.7
2018-Mar-24 02:30N 29°35' W 090°36'2 3.6
2018-Mar-24 02:00N 29°35' W 090°38'2 4.1
2018-Mar-24 01:30N 29°36' W 090°40'2 3.3
2018-Mar-24 01:00N 29°37' W 090°42'2 3.5
2018-Mar-24 00:30N 29°35' W 090°43'2 3.4
2018-Mar-24 00:00N 29°34' W 090°44'1 1.7
2018-Mar-23 23:30N 29°34' W 090°45'1 1.2
2018-Mar-23 23:00N 29°33' W 090°45'1 2.9
2018-Mar-23 22:30N 29°32' W 090°47'3 5.0
2018-Mar-23 21:59N 29°32' W 090°50'  
2018-Mar-21 00:56N 29°56' W 093°01'1 3.3
2018-Mar-21 00:29N 29°56' W 093°03'2 3.2
2018-Mar-21 00:00N 29°56' W 093°05'1 2.8
2018-Mar-20 23:30N 29°56' W 093°06'2 3.3
2018-Mar-20 23:00N 29°56' W 093°08'2 3.0
2018-Mar-20 22:30N 29°57' W 093°10'2 3.2
2018-Mar-20 22:00N 29°58' W 093°11'2 3.1
2018-Mar-20 21:30N 29°59' W 093°12'2 3.0
2018-Mar-20 21:00N 30°00' W 093°13'1 2.7
2018-Mar-20 20:31N 30°01' W 093°14'2 3.0
2018-Mar-20 20:01N 30°02' W 093°15'1 2.7
2018-Mar-20 19:30N 30°04' W 093°16'2 3.1
2018-Mar-20 19:00N 30°05' W 093°17'1 1.7
2018-Mar-20 18:31N 30°05' W 093°18'1 1.6
2018-Mar-20 18:00N 30°06' W 093°18'1 1.8
2018-Mar-20 17:31N 30°06' W 093°19'2 3.5
2018-Mar-20 17:00N 30°04' W 093°21'1 3.0
2018-Mar-20 16:30N 30°04' W 093°22'2 4.0
2018-Mar-20 16:00N 30°04' W 093°24'2 4.2
2018-Mar-20 15:30N 30°04' W 093°27'2 4.1
2018-Mar-20 15:00N 30°04' W 093°29'6 3.7
2018-Mar-20 13:23N 30°04' W 093°36'1 3.4
2018-Mar-20 12:57N 30°04' W 093°38'2 3.2
2018-Mar-20 12:28N 30°04' W 093°40'2 3.4
2018-Mar-20 12:00N 30°04' W 093°42'1 3.0
2018-Mar-20 11:31N 30°03' W 093°43'2 3.0
2018-Mar-20 11:01N 30°02' W 093°44'1 3.0
2018-Mar-20 10:31N 30°01' W 093°45'2 3.1
2018-Mar-20 10:00N 29°60' W 093°47'2 3.3
2018-Mar-20 09:30N 29°59' W 093°48'2 3.8
2018-Mar-20 09:00N 29°58' W 093°50'2 3.1
2018-Mar-20 08:31N 29°57' W 093°52'2 3.4
2018-Mar-20 08:00N 29°56' W 093°52'1 2.8
2018-Mar-20 07:31N 29°55' W 093°54'1 2.6
2018-Mar-20 07:00N 29°54' W 093°54'1 2.7
2018-Mar-20 06:30N 29°53' W 093°55'1 2.4
2018-Mar-20 06:00N 29°52' W 093°56'1 2.4
2018-Mar-20 05:30N 29°51' W 093°57'1 2.1
2018-Mar-20 05:00N 29°50' W 093°57'2 3.5
2018-Mar-20 04:31N 29°49' W 093°59'2 3.7
2018-Mar-20 04:00N 29°48' W 094°01'2 3.8
2018-Mar-20 03:30N 29°46' W 094°02'2 3.5
2018-Mar-20 03:01N 29°45' W 094°04'2 3.3
2018-Mar-20 02:30N 29°44' W 094°05'2 3.2
2018-Mar-20 02:01N 29°43' W 094°07'2 3.4
2018-Mar-20 01:30N 29°42' W 094°08'2 3.3
2018-Mar-20 01:00N 29°41' W 094°10'2 3.4
2018-Mar-20 00:30N 29°41' W 094°12'1 2.0
2018-Mar-20 00:00N 29°40' W 094°13'1 2.9
2018-Mar-19 23:30N 29°40' W 094°14'2 3.6
2018-Mar-19 23:00N 29°39' W 094°16'2 3.7
2018-Mar-19 22:30N 29°38' W 094°18'2 3.5
2018-Mar-19 21:59N 29°37' W 094°20'2 3.5
2018-Mar-19 21:29N 29°36' W 094°22'2 3.4
2018-Mar-19 21:00N 29°36' W 094°24'1 2.7
2018-Mar-19 20:30N 29°35' W 094°25'2 2.8
2018-Mar-19 19:49N 29°34' W 094°27'1 3.4
2018-Mar-19 19:26N 29°33' W 094°28'2 3.7
2018-Mar-19 19:01N 29°32' W 094°29'2 3.7
2018-Mar-19 18:26N 29°31' W 094°31'1 2.1
2018-Mar-19 17:55N 29°31' W 094°32'2 3.6
2018-Mar-19 17:30N 29°30' W 094°34'2 3.5
2018-Mar-19 16:57N 29°29' W 094°36'2 3.5
2018-Mar-19 16:29N 29°29' W 094°37'2 3.5
2018-Mar-19 16:00N 29°28' W 094°39'1 2.9
2018-Mar-19 15:30N 29°27' W 094°41'2 3.2
2018-Mar-19 14:58N 29°26' W 094°42'1 2.8
2018-Mar-19 14:30N 29°25' W 094°43'0 0.1
2018-Mar-19 13:59N 29°25' W 094°43'3 4.6
2018-Mar-19 13:19N 29°23' W 094°46'2 6.0
2018-Mar-19 12:59N 29°22' W 094°48'25 4.1
2018-Mar-19 06:55N 29°44' W 095°02'  
2018-Mar-15 17:44N 29°46' W 095°06'0 0.0
2018-Mar-15 17:14N 29°46' W 095°06'0 0.2
2018-Mar-15 15:07N 29°47' W 095°06'0 1.7
2018-Mar-15 14:52N 29°46' W 095°06'0 1.0
2018-Mar-15 14:24N 29°46' W 095°06'0 0.5
2018-Mar-15 14:00N 29°46' W 095°05'0 0.5
2018-Mar-15 13:28N 29°46' W 095°05'2 2.7
2018-Mar-15 12:55N 29°45' W 095°04'2 4.3
2018-Mar-15 12:29N 29°44' W 095°02'2 3.7
2018-Mar-15 12:01N 29°42' W 095°01'2 4.0
2018-Mar-15 11:30N 29°41' W 094°59'2 4.3
2018-Mar-15 11:00N 29°39' W 094°58'2 4.2
2018-Mar-15 10:29N 29°37' W 094°57'2 4.7
2018-Mar-15 10:01N 29°35' W 094°56'3 5.2
2018-Mar-15 09:29N 29°33' W 094°54'2 4.7
2018-Mar-15 08:59N 29°31' W 094°53'3 5.1
2018-Mar-15 08:29N 29°29' W 094°51'3 5.2
2018-Mar-15 07:59N 29°26' W 094°50'3 5.1
2018-Mar-15 07:29N 29°24' W 094°49'2 4.4
2018-Mar-15 07:00N 29°22' W 094°48'2 3.8
2018-Mar-15 06:30N 29°23' W 094°46'2 3.9
2018-Mar-15 05:59N 29°25' W 094°44'2 3.8
2018-Mar-15 05:30N 29°26' W 094°43'1 2.9
2018-Mar-15 05:00N 29°27' W 094°42'2 3.4
2018-Mar-15 04:29N 29°28' W 094°40'2 3.4
2018-Mar-15 04:00N 29°28' W 094°38'1 2.0
2018-Mar-15 03:30N 29°29' W 094°37'2 3.8
2018-Mar-15 03:00N 29°29' W 094°35'2 3.8
2018-Mar-15 02:30N 29°30' W 094°33'2 3.8
2018-Mar-15 02:00N 29°31' W 094°31'2 3.7
2018-Mar-15 01:30N 29°32' W 094°29'2 3.8
2018-Mar-15 01:00N 29°33' W 094°28'2 3.6
2018-Mar-15 00:26N 29°34' W 094°26'1 3.1
2018-Mar-15 00:00N 29°35' W 094°25'7 3.0
2018-Mar-14 21:33N 29°38' W 094°17'1 3.2
2018-Mar-14 21:11N 29°39' W 094°16'2 3.8
2018-Mar-14 20:43N 29°40' W 094°14'1 4.0
2018-Mar-14 20:28N 29°40' W 094°13'2 4.0
2018-Mar-14 20:00N 29°41' W 094°12'2 3.9
2018-Mar-14 19:30N 29°41' W 094°09'2 2.8
2018-Mar-14 18:56N 29°43' W 094°08'2 4.2
2018-Mar-14 18:30N 29°44' W 094°06'2 4.2
2018-Mar-14 18:00N 29°45' W 094°04'2 3.7
2018-Mar-14 17:30N 29°46' W 094°03'2 4.2
2018-Mar-14 17:00N 29°47' W 094°01'2 4.1
2018-Mar-14 16:30N 29°49' W 093°59'2 3.7
2018-Mar-14 16:00N 29°50' W 093°57'2 4.4
2018-Mar-14 15:30N 29°52' W 093°56'2 3.1
2018-Mar-14 15:00N 29°53' W 093°55'2 4.9
2018-Mar-14 14:30N 29°55' W 093°53'3 6.3
2018-Mar-14 14:01N 29°57' W 093°52'2 3.9
2018-Mar-14 13:31N 29°59' W 093°50'1 2.7
2018-Mar-14 13:01N 29°59' W 093°48'3 5.5
2018-Mar-14 12:30N 30°01' W 093°46'2 4.1
2018-Mar-14 12:00N 30°02' W 093°44'2 4.4
2018-Mar-14 11:31N 30°03' W 093°42'1 1.9
2018-Mar-14 11:00N 30°04' W 093°41'0 0.4
2018-Mar-14 10:30N 30°04' W 093°41'2 3.3
2018-Mar-14 10:00N 30°04' W 093°39'2 3.5
2018-Mar-14 09:30N 30°04' W 093°37'1 1.5
2018-Mar-14 09:00N 30°04' W 093°36'2 3.1
2018-Mar-14 08:30N 30°04' W 093°34'2 3.1
2018-Mar-14 08:00N 30°04' W 093°32'2 3.1
2018-Mar-14 07:30N 30°04' W 093°30'2 3.1
2018-Mar-14 07:00N 30°04' W 093°29'1 2.8
2018-Mar-14 06:30N 30°04' W 093°27'1 2.4
2018-Mar-14 06:01N 30°04' W 093°26'  
Track history (hours):
 
Tides and Currents Weather Stations Pressure Air Temp Water Temp Dewpoint Dewpoint Depression Visibility Wind Speed Wind Dir Waves Ship Positions

Corky

Owner: Gulf South Marine Transportation, Inc., New Orleans, LA. More information available from US FCC via Universal Licensing System and Coast Guard Vessel Documentation Center.

Last reported at 2018-Mar-24 05:48 UTC. Time now 2018-Apr-24 08:55 UTC.
Position N 29°33' W 090°24'.
Warning: this ship's position is 31 days out of date.

Length 18 m; draft 3.3 m.

Type: Tow > 200 m length. MMSI: 367006780.

Date/timePositionNaut miles runAvg speedWind from/ knotsBaromVisibWave heightAir tempDewpointWater temp
2018-Mar-24 05:48N 29°33' W 090°24'1 2.8
2018-Mar-24 05:27N 29°33' W 090°25'1 2.8
2018-Mar-24 04:58N 29°33' W 090°26'2 2.6
2018-Mar-24 04:19N 29°33' W 090°28'1 4.2
2018-Mar-24 04:00N 29°34' W 090°30'2 4.2
2018-Mar-24 03:30N 29°34' W 090°32'2 3.8
2018-Mar-24 03:00N 29°34' W 090°34'2 3.7
2018-Mar-24 02:30N 29°35' W 090°36'2 3.6
2018-Mar-24 02:00N 29°35' W 090°38'2 4.1
2018-Mar-24 01:30N 29°36' W 090°40'2 3.3
2018-Mar-24 01:00N 29°37' W 090°42'2 3.5
2018-Mar-24 00:30N 29°35' W 090°43'2 3.4
2018-Mar-24 00:00N 29°34' W 090°44'1 1.7
2018-Mar-23 23:30N 29°34' W 090°45'1 1.2
2018-Mar-23 23:00N 29°33' W 090°45'1 2.9
2018-Mar-23 22:30N 29°32' W 090°47'3 5.0
2018-Mar-23 21:59N 29°32' W 090°50'  
2018-Mar-21 00:56N 29°56' W 093°01'1 3.3
2018-Mar-21 00:29N 29°56' W 093°03'2 3.2
2018-Mar-21 00:00N 29°56' W 093°05'1 2.8
2018-Mar-20 23:30N 29°56' W 093°06'2 3.3
2018-Mar-20 23:00N 29°56' W 093°08'2 3.0
2018-Mar-20 22:30N 29°57' W 093°10'2 3.2
2018-Mar-20 22:00N 29°58' W 093°11'2 3.1
2018-Mar-20 21:30N 29°59' W 093°12'2 3.0
2018-Mar-20 21:00N 30°00' W 093°13'1 2.7
2018-Mar-20 20:31N 30°01' W 093°14'2 3.0
2018-Mar-20 20:01N 30°02' W 093°15'1 2.7
2018-Mar-20 19:30N 30°04' W 093°16'2 3.1
2018-Mar-20 19:00N 30°05' W 093°17'1 1.7
2018-Mar-20 18:31N 30°05' W 093°18'1 1.6
2018-Mar-20 18:00N 30°06' W 093°18'1 1.8
2018-Mar-20 17:31N 30°06' W 093°19'2 3.5
2018-Mar-20 17:00N 30°04' W 093°21'1 3.0
2018-Mar-20 16:30N 30°04' W 093°22'2 4.0
2018-Mar-20 16:00N 30°04' W 093°24'2 4.2
2018-Mar-20 15:30N 30°04' W 093°27'2 4.1
2018-Mar-20 15:00N 30°04' W 093°29'6 3.7
2018-Mar-20 13:23N 30°04' W 093°36'1 3.4
2018-Mar-20 12:57N 30°04' W 093°38'2 3.2
2018-Mar-20 12:28N 30°04' W 093°40'2 3.4
2018-Mar-20 12:00N 30°04' W 093°42'1 3.0
2018-Mar-20 11:31N 30°03' W 093°43'2 3.0
2018-Mar-20 11:01N 30°02' W 093°44'1 3.0
2018-Mar-20 10:31N 30°01' W 093°45'2 3.1
2018-Mar-20 10:00N 29°60' W 093°47'2 3.3
2018-Mar-20 09:30N 29°59' W 093°48'2 3.8
2018-Mar-20 09:00N 29°58' W 093°50'2 3.1
2018-Mar-20 08:31N 29°57' W 093°52'2 3.4
2018-Mar-20 08:00N 29°56' W 093°52'1 2.8
2018-Mar-20 07:31N 29°55' W 093°54'1 2.6
2018-Mar-20 07:00N 29°54' W 093°54'1 2.7
2018-Mar-20 06:30N 29°53' W 093°55'1 2.4
2018-Mar-20 06:00N 29°52' W 093°56'1 2.4
2018-Mar-20 05:30N 29°51' W 093°57'1 2.1
2018-Mar-20 05:00N 29°50' W 093°57'2 3.5
2018-Mar-20 04:31N 29°49' W 093°59'2 3.7
2018-Mar-20 04:00N 29°48' W 094°01'2 3.8
2018-Mar-20 03:30N 29°46' W 094°02'2 3.5
2018-Mar-20 03:01N 29°45' W 094°04'2 3.3
2018-Mar-20 02:30N 29°44' W 094°05'2 3.2
2018-Mar-20 02:01N 29°43' W 094°07'2 3.4
2018-Mar-20 01:30N 29°42' W 094°08'2 3.3
2018-Mar-20 01:00N 29°41' W 094°10'2 3.4
2018-Mar-20 00:30N 29°41' W 094°12'1 2.0
2018-Mar-20 00:00N 29°40' W 094°13'1 2.9
2018-Mar-19 23:30N 29°40' W 094°14'2 3.6
2018-Mar-19 23:00N 29°39' W 094°16'2 3.7
2018-Mar-19 22:30N 29°38' W 094°18'2 3.5
2018-Mar-19 21:59N 29°37' W 094°20'2 3.5
2018-Mar-19 21:29N 29°36' W 094°22'2 3.4
2018-Mar-19 21:00N 29°36' W 094°24'1 2.7
2018-Mar-19 20:30N 29°35' W 094°25'2 2.8
2018-Mar-19 19:49N 29°34' W 094°27'1 3.4
2018-Mar-19 19:26N 29°33' W 094°28'2 3.7
2018-Mar-19 19:01N 29°32' W 094°29'2 3.7
2018-Mar-19 18:26N 29°31' W 094°31'1 2.1
2018-Mar-19 17:55N 29°31' W 094°32'2 3.6
2018-Mar-19 17:30N 29°30' W 094°34'2 3.5
2018-Mar-19 16:57N 29°29' W 094°36'2 3.5
2018-Mar-19 16:29N 29°29' W 094°37'2 3.5
2018-Mar-19 16:00N 29°28' W 094°39'1 2.9
2018-Mar-19 15:30N 29°27' W 094°41'2 3.2
2018-Mar-19 14:58N 29°26' W 094°42'1 2.8
2018-Mar-19 14:30N 29°25' W 094°43'0 0.1
2018-Mar-19 13:59N 29°25' W 094°43'3 4.6
2018-Mar-19 13:19N 29°23' W 094°46'2 6.0
2018-Mar-19 12:59N 29°22' W 094°48'25 4.1
2018-Mar-19 06:55N 29°44' W 095°02'  
2018-Mar-15 17:44N 29°46' W 095°06'0 0.0
2018-Mar-15 17:14N 29°46' W 095°06'0 0.2
2018-Mar-15 15:07N 29°47' W 095°06'0 1.7
2018-Mar-15 14:52N 29°46' W 095°06'0 1.0
2018-Mar-15 14:24N 29°46' W 095°06'0 0.5
2018-Mar-15 14:00N 29°46' W 095°05'0 0.5
2018-Mar-15 13:28N 29°46' W 095°05'2 2.7
2018-Mar-15 12:55N 29°45' W 095°04'2 4.3
2018-Mar-15 12:29N 29°44' W 095°02'2 3.7
2018-Mar-15 12:01N 29°42' W 095°01'2 4.0
2018-Mar-15 11:30N 29°41' W 094°59'2 4.3
2018-Mar-15 11:00N 29°39' W 094°58'2 4.2
2018-Mar-15 10:29N 29°37' W 094°57'2 4.7
2018-Mar-15 10:01N 29°35' W 094°56'3 5.2
2018-Mar-15 09:29N 29°33' W 094°54'2 4.7
2018-Mar-15 08:59N 29°31' W 094°53'3 5.1
2018-Mar-15 08:29N 29°29' W 094°51'3 5.2
2018-Mar-15 07:59N 29°26' W 094°50'3 5.1
2018-Mar-15 07:29N 29°24' W 094°49'2 4.4
2018-Mar-15 07:00N 29°22' W 094°48'2 3.8
2018-Mar-15 06:30N 29°23' W 094°46'2 3.9
2018-Mar-15 05:59N 29°25' W 094°44'2 3.8
2018-Mar-15 05:30N 29°26' W 094°43'1 2.9
2018-Mar-15 05:00N 29°27' W 094°42'2 3.4
2018-Mar-15 04:29N 29°28' W 094°40'2 3.4
2018-Mar-15 04:00N 29°28' W 094°38'1 2.0
2018-Mar-15 03:30N 29°29' W 094°37'2 3.8
2018-Mar-15 03:00N 29°29' W 094°35'2 3.8
2018-Mar-15 02:30N 29°30' W 094°33'2 3.8
2018-Mar-15 02:00N 29°31' W 094°31'2 3.7
2018-Mar-15 01:30N 29°32' W 094°29'2 3.8
2018-Mar-15 01:00N 29°33' W 094°28'2 3.6
2018-Mar-15 00:26N 29°34' W 094°26'1 3.1
2018-Mar-15 00:00N 29°35' W 094°25'7 3.0
2018-Mar-14 21:33N 29°38' W 094°17'1 3.2
2018-Mar-14 21:11N 29°39' W 094°16'2 3.8
2018-Mar-14 20:43N 29°40' W 094°14'1 4.0
2018-Mar-14 20:28N 29°40' W 094°13'2 4.0
2018-Mar-14 20:00N 29°41' W 094°12'2 3.9
2018-Mar-14 19:30N 29°41' W 094°09'2 2.8
2018-Mar-14 18:56N 29°43' W 094°08'2 4.2
2018-Mar-14 18:30N 29°44' W 094°06'2 4.2
2018-Mar-14 18:00N 29°45' W 094°04'2 3.7
2018-Mar-14 17:30N 29°46' W 094°03'2 4.2
2018-Mar-14 17:00N 29°47' W 094°01'2 4.1
2018-Mar-14 16:30N 29°49' W 093°59'2 3.7
2018-Mar-14 16:00N 29°50' W 093°57'2 4.4
2018-Mar-14 15:30N 29°52' W 093°56'2 3.1
2018-Mar-14 15:00N 29°53' W 093°55'2 4.9
2018-Mar-14 14:30N 29°55' W 093°53'3 6.3
2018-Mar-14 14:01N 29°57' W 093°52'2 3.9
2018-Mar-14 13:31N 29°59' W 093°50'1 2.7
2018-Mar-14 13:01N 29°59' W 093°48'3 5.5
2018-Mar-14 12:30N 30°01' W 093°46'2 4.1
2018-Mar-14 12:00N 30°02' W 093°44'2 4.4
2018-Mar-14 11:31N 30°03' W 093°42'1 1.9
2018-Mar-14 11:00N 30°04' W 093°41'0 0.4
2018-Mar-14 10:30N 30°04' W 093°41'2 3.3
2018-Mar-14 10:00N 30°04' W 093°39'2 3.5
2018-Mar-14 09:30N 30°04' W 093°37'1 1.5
2018-Mar-14 09:00N 30°04' W 093°36'2 3.1
2018-Mar-14 08:30N 30°04' W 093°34'2 3.1
2018-Mar-14 08:00N 30°04' W 093°32'2 3.1
2018-Mar-14 07:30N 30°04' W 093°30'2 3.1
2018-Mar-14 07:00N 30°04' W 093°29'1 2.8
2018-Mar-14 06:30N 30°04' W 093°27'1 2.4
2018-Mar-14 06:01N 30°04' W 093°26'  

Dump ship's entire track history